Anchorage/Lake Hood Seaplane Base, Alaska
Current Conditions -  °F | °C
As of 8:53 PM on Monday 20 Oct 2014 (Local Time) from PALH Reporting Station
Overcast Overcast  
Wind Chill: 33°   Ceiling: 12000
Heat Index: 37°   Visibility: 10mi
Dew Point: 33°   Wind: 5mph
Humidity: 86%   Direction: 50°NE
Pressure: 29.18"   Gusts: NA
Location:  61.18°N, 149.97°W
Report Text: PALH 210453Z 05004KT 10SM OVC120 03/01 A2918 RMK AO2 SLP883 T00280006
Loading
Personal Weather Stations






























Interactive Weather Map
Tropical Storm Tracking
New forecast layout! Learn more

10-Day Weather Forecast

Advertisements
Track Severe Weather on mobile